createdAt,value
2019-05-25T00:01:51.578Z,3.20
2019-05-25T00:04:17.923Z,3.13
2019-05-25T00:06:44.611Z,2.70
2019-05-25T00:09:11.061Z,2.93
2019-05-25T00:11:37.439Z,3.90
2019-05-25T00:14:04.266Z,3.50
2019-05-25T00:16:32.087Z,3.13
2019-05-25T00:18:58.455Z,3.27
2019-05-25T00:21:24.813Z,3.40
2019-05-25T00:23:51.220Z,2.83
2019-05-25T00:26:17.922Z,3.10
2019-05-25T00:28:45.574Z,4.03
2019-05-25T00:31:12.182Z,3.70
2019-05-25T00:33:38.785Z,2.57
2019-05-25T00:36:06.149Z,3.60
2019-05-25T00:38:32.383Z,3.57
2019-05-25T00:40:58.663Z,3.10
2019-05-25T00:43:24.994Z,3.20
2019-05-25T00:45:51.651Z,2.73
2019-05-25T00:48:17.899Z,2.70
2019-05-25T00:50:44.310Z,3.17
2019-05-25T00:53:10.646Z,2.40
2019-05-25T00:55:36.915Z,2.90
2019-05-25T00:58:03.270Z,2.60
2019-05-25T01:00:30.837Z,3.30
2019-05-25T01:02:57.168Z,3.10
2019-05-25T01:05:23.572Z,3.63
2019-05-25T01:07:49.918Z,3.50
2019-05-25T01:10:16.763Z,3.67
2019-05-25T01:12:43.407Z,3.00
2019-05-25T01:15:11.799Z,3.33
2019-05-25T01:17:38.234Z,3.00
2019-05-25T01:20:06.976Z,2.83
2019-05-25T01:22:33.321Z,3.60
2019-05-25T01:24:59.657Z,2.80
2019-05-25T01:27:25.944Z,2.97
2019-05-25T01:29:52.583Z,3.10
2019-05-25T01:32:19.223Z,4.30
2019-05-25T01:34:45.868Z,4.50
2019-05-25T01:37:12.260Z,4.13
2019-05-25T01:39:38.859Z,3.53
2019-05-25T01:42:05.343Z,3.40
2019-05-25T01:44:31.667Z,3.37
2019-05-25T01:46:58.194Z,3.33
2019-05-25T01:49:24.554Z,2.90
2019-05-25T01:51:51.089Z,2.80
2019-05-25T01:54:17.389Z,2.60
2019-05-25T01:56:43.976Z,2.80
2019-05-25T01:59:10.391Z,2.73
2019-05-25T02:01:36.741Z,3.03
2019-05-25T02:04:03.456Z,2.70
2019-05-25T02:06:29.728Z,2.67
2019-05-25T02:08:56.348Z,3.00
2019-05-25T02:11:23.101Z,2.80
2019-05-25T02:13:49.460Z,2.40
2019-05-25T02:16:15.777Z,2.70
2019-05-25T02:18:45.448Z,2.80
2019-05-25T02:21:10.312Z,2.97
2019-05-25T02:23:37.114Z,3.13
2019-05-25T02:26:03.408Z,2.80
2019-05-25T02:28:30.097Z,3.30
2019-05-25T02:30:56.852Z,3.10
2019-05-25T02:33:23.320Z,2.90
2019-05-25T02:35:49.964Z,2.80
2019-05-25T02:38:16.350Z,2.90
2019-05-25T02:40:42.826Z,2.60
2019-05-25T02:43:09.297Z,3.00
2019-05-25T02:45:35.745Z,2.70
2019-05-25T02:48:02.503Z,2.23
2019-05-25T02:50:28.848Z,2.67
2019-05-25T02:52:56.178Z,2.97
2019-05-25T02:55:33.674Z,3.30
2019-05-25T02:57:51.072Z,3.03
2019-05-25T03:00:21.445Z,2.60
2019-05-25T03:02:47.880Z,2.40
2019-05-25T03:05:14.817Z,2.43
2019-05-25T03:07:43.433Z,2.43
2019-05-25T03:10:10.288Z,2.60
2019-05-25T03:12:37.404Z,2.50
2019-05-25T03:15:06.174Z,2.67
2019-05-25T03:17:33.252Z,2.47
2019-05-25T03:19:59.588Z,3.03
2019-05-25T03:22:25.880Z,4.17
2019-05-25T03:24:52.325Z,3.87
2019-05-25T03:27:18.795Z,3.70
2019-05-25T03:29:45.160Z,3.90
2019-05-25T03:32:11.543Z,3.23
2019-05-25T03:34:38.195Z,3.00
2019-05-25T03:37:04.580Z,4.10
2019-05-25T03:39:30.837Z,3.73
2019-05-25T03:41:57.110Z,2.53
2019-05-25T03:44:23.980Z,3.13
2019-05-25T03:46:50.270Z,3.03
2019-05-25T03:49:19.753Z,3.67
2019-05-25T03:51:46.050Z,3.30
2019-05-25T03:54:12.406Z,3.67
2019-05-25T03:56:39.789Z,3.40
2019-05-25T03:59:06.241Z,3.20
2019-05-25T04:01:32.631Z,3.20
2019-05-25T04:03:59.265Z,3.10
2019-05-25T04:06:25.653Z,2.87
2019-05-25T04:08:52.324Z,3.50
2019-05-25T04:11:18.909Z,3.50
2019-05-25T04:13:45.275Z,4.73
2019-05-25T04:16:12.033Z,4.50
2019-05-25T04:18:38.320Z,5.40
2019-05-25T04:21:04.653Z,4.20
2019-05-25T04:23:31.023Z,5.10
2019-05-25T04:25:57.619Z,5.10
2019-05-25T04:28:24.190Z,5.50
2019-05-25T04:30:50.606Z,5.30
2019-05-25T04:33:16.875Z,4.97
2019-05-25T04:35:43.244Z,4.40
2019-05-25T04:38:09.699Z,5.50
2019-05-25T04:40:35.997Z,5.80
2019-05-25T04:43:03.146Z,6.13
2019-05-25T04:45:29.492Z,5.80
2019-05-25T04:47:55.903Z,6.40
2019-05-25T04:50:22.274Z,5.53
2019-05-25T04:52:48.743Z,5.90
2019-05-25T04:55:15.195Z,4.90
2019-05-25T04:57:41.657Z,4.87
2019-05-25T05:00:08.793Z,3.90
2019-05-25T05:02:35.164Z,5.13
2019-05-25T05:05:01.879Z,5.63
2019-05-25T05:07:28.604Z,5.43
2019-05-25T05:10:02.611Z,4.50
2019-05-25T05:12:23.471Z,4.77
2019-05-25T05:14:50.212Z,5.50
2019-05-25T05:17:16.489Z,5.90
2019-05-25T05:19:43.002Z,5.27
2019-05-25T05:22:09.292Z,5.63
2019-05-25T05:24:35.540Z,5.50
2019-05-25T05:27:01.937Z,5.53
2019-05-25T05:29:28.560Z,6.03
2019-05-25T05:31:54.878Z,5.20
2019-05-25T05:34:21.524Z,5.67
2019-05-25T05:36:48.617Z,5.20
2019-05-25T05:39:15.588Z,5.27
2019-05-25T05:41:45.663Z,5.67
2019-05-25T05:44:13.241Z,5.43
2019-05-25T05:46:40.395Z,5.93
2019-05-25T05:49:08.279Z,5.00
2019-05-25T05:51:35.374Z,5.37
2019-05-25T05:54:02.631Z,5.70
2019-05-25T05:56:29.003Z,6.90
2019-05-25T05:58:55.402Z,5.93
2019-05-25T06:01:21.768Z,6.20
2019-05-25T06:03:48.398Z,6.20
2019-05-25T06:06:14.663Z,6.23
2019-05-25T06:08:40.970Z,5.20
2019-05-25T06:11:07.319Z,7.03
2019-05-25T06:13:33.963Z,6.33
2019-05-25T06:16:00.429Z,7.70
2019-05-25T06:18:26.832Z,6.77
2019-05-25T06:20:53.439Z,6.70
2019-05-25T06:23:20.112Z,7.10
2019-05-25T06:25:46.565Z,6.07
2019-05-25T06:28:13.452Z,6.33
2019-05-25T06:30:40.809Z,7.07
2019-05-25T06:33:07.468Z,7.90
2019-05-25T06:35:33.816Z,7.17
2019-05-25T06:38:00.339Z,6.37
2019-05-25T06:40:26.603Z,6.17
2019-05-25T06:42:52.984Z,8.37
2019-05-25T06:45:19.441Z,7.87
2019-05-25T06:47:45.816Z,7.63
2019-05-25T06:50:13.096Z,8.67
2019-05-25T06:52:39.824Z,7.17
2019-05-25T06:55:06.646Z,8.13
2019-05-25T06:57:42.439Z,7.37
2019-05-25T07:00:04.378Z,6.27
2019-05-25T07:02:30.715Z,6.63
2019-05-25T07:04:57.111Z,7.43
2019-05-25T07:07:23.782Z,6.30
2019-05-25T07:09:50.414Z,6.10
2019-05-25T07:12:16.776Z,6.27
2019-05-25T07:14:43.204Z,5.87
2019-05-25T07:17:09.897Z,6.23
2019-05-25T07:19:36.283Z,5.93
2019-05-25T07:22:02.938Z,6.37
2019-05-25T07:24:30.553Z,5.73
2019-05-25T07:26:56.944Z,5.83
2019-05-25T07:29:23.338Z,6.47
2019-05-25T07:31:50.663Z,5.43
2019-05-25T07:34:16.935Z,5.67
2019-05-25T07:36:43.271Z,5.13
2019-05-25T07:39:09.938Z,5.27
2019-05-25T07:41:37.644Z,5.27
2019-05-25T07:44:04.196Z,4.33
2019-05-25T07:46:30.633Z,5.03
2019-05-25T07:48:56.984Z,5.37
2019-05-25T07:51:24.230Z,4.30
2019-05-25T07:53:53.417Z,4.67
2019-05-25T07:56:21.809Z,4.37
2019-05-25T07:58:53.797Z,4.20
2019-05-25T08:01:22.003Z,4.03
2019-05-25T08:03:48.530Z,4.00
2019-05-25T08:06:14.975Z,4.60
2019-05-25T08:08:41.389Z,4.30
2019-05-25T08:11:07.755Z,3.47
2019-05-25T08:13:34.308Z,3.80
2019-05-25T08:16:03.914Z,4.13
2019-05-25T08:18:30.297Z,4.10
2019-05-25T08:20:56.932Z,3.97
2019-05-25T08:23:24.575Z,4.50
2019-05-25T08:25:51.061Z,4.30
2019-05-25T08:28:31.719Z,3.70
2019-05-25T08:30:46.245Z,3.90
2019-05-25T08:33:12.535Z,3.50
2019-05-25T08:35:38.800Z,4.30
2019-05-25T08:38:07.478Z,3.90
2019-05-25T08:40:53.846Z,3.63
2019-05-25T08:43:28.908Z,3.83
2019-05-25T08:45:55.267Z,3.37
2019-05-25T08:48:23.830Z,3.73
2019-05-25T08:50:51.188Z,3.20
2019-05-25T08:53:20.922Z,3.57
2019-05-25T08:55:46.820Z,3.42
2019-05-25T08:58:13.518Z,3.50
2019-05-25T09:00:39.879Z,4.28
2019-05-25T09:03:06.631Z,3.05
2019-05-25T09:05:33.103Z,3.65
2019-05-25T09:07:59.553Z,3.05
2019-05-25T09:10:26.188Z,3.22
2019-05-25T09:13:03.917Z,3.95
2019-05-25T09:15:35.664Z,3.40
2019-05-25T09:18:19.726Z,3.27
2019-05-25T09:20:47.040Z,3.40
2019-05-25T09:23:13.383Z,3.42
2019-05-25T09:25:40.260Z,3.92
2019-05-25T09:28:06.624Z,3.42
2019-05-25T09:30:33.112Z,4.10
2019-05-25T09:32:59.748Z,3.30
2019-05-25T09:35:26.151Z,3.70
2019-05-25T09:37:52.402Z,3.40
2019-05-25T09:40:19.354Z,3.15
2019-05-25T09:42:51.029Z,2.75
2019-05-25T09:45:17.963Z,3.25
2019-05-25T09:47:45.740Z,3.30
2019-05-25T09:50:16.599Z,3.12
2019-05-25T09:52:43.051Z,2.80
2019-05-25T09:55:10.042Z,2.80
2019-05-25T09:57:36.585Z,2.77
2019-05-25T10:00:08.457Z,3.12
2019-05-25T10:02:35.075Z,3.10
2019-05-25T10:05:01.414Z,3.08
2019-05-25T10:07:28.163Z,3.22
2019-05-25T10:09:55.917Z,2.77
2019-05-25T10:12:22.565Z,2.80
2019-05-25T10:14:51.247Z,2.92
2019-05-25T10:17:18.649Z,2.83
2019-05-25T10:19:45.031Z,3.15
2019-05-25T10:22:11.288Z,2.40
2019-05-25T10:24:37.828Z,3.55
2019-05-25T10:27:05.250Z,3.33
2019-05-25T10:29:37.341Z,3.47
2019-05-25T10:32:00.479Z,3.12
2019-05-25T10:34:26.716Z,2.67
2019-05-25T10:36:53.172Z,3.20
2019-05-25T10:39:19.559Z,5.25
2019-05-25T10:41:45.920Z,6.17
2019-05-25T10:44:12.384Z,4.97
2019-05-25T10:46:39.012Z,4.50
2019-05-25T10:49:11.461Z,5.35
2019-05-25T10:51:36.742Z,4.67
2019-05-25T10:54:03.392Z,4.80
2019-05-25T10:56:29.778Z,4.63
2019-05-25T10:58:56.367Z,5.10
2019-05-25T11:01:22.896Z,3.20
2019-05-25T11:03:49.202Z,2.33
2019-05-25T11:06:15.601Z,1.97
2019-05-25T11:08:42.053Z,1.73
2019-05-25T11:11:12.727Z,1.90
2019-05-25T11:13:39.523Z,2.30
2019-05-25T11:16:05.928Z,1.97
2019-05-25T11:18:32.577Z,2.00
2019-05-25T11:20:59.084Z,2.27
2019-05-25T11:23:25.558Z,1.70
2019-05-25T11:25:51.927Z,1.70
2019-05-25T11:28:18.579Z,3.00
2019-05-25T11:30:44.858Z,2.37
2019-05-25T11:33:11.124Z,2.57
2019-05-25T11:35:38.668Z,2.03
2019-05-25T11:38:07.125Z,1.50
2019-05-25T11:40:33.618Z,1.63
2019-05-25T11:43:00.295Z,1.37
2019-05-25T11:45:26.669Z,1.40
2019-05-25T11:47:53.040Z,1.83
2019-05-25T11:50:20.276Z,1.33
2019-05-25T11:52:46.691Z,1.67
2019-05-25T11:55:13.706Z,2.40
2019-05-25T11:57:41.085Z,1.85
2019-05-25T12:00:23.692Z,2.27
2019-05-25T12:02:39.164Z,3.10
2019-05-25T12:05:06.059Z,2.87
2019-05-25T12:07:32.336Z,2.58
2019-05-25T12:09:58.681Z,3.75
2019-05-25T12:12:25.169Z,4.17
2019-05-25T12:14:51.829Z,4.55
2019-05-25T12:17:18.291Z,4.00
2019-05-25T12:19:44.631Z,5.00
2019-05-25T12:22:12.281Z,4.00
2019-05-25T12:24:38.629Z,4.33
2019-05-25T12:27:04.890Z,3.98
2019-05-25T12:29:31.143Z,3.67
2019-05-25T12:32:04.123Z,3.67
2019-05-25T12:34:25.674Z,3.47
2019-05-25T12:36:52.333Z,3.75
2019-05-25T12:39:18.703Z,3.20
2019-05-25T12:41:45.072Z,4.00
2019-05-25T12:44:11.415Z,2.87
2019-05-25T12:46:37.714Z,4.90
2019-05-25T12:49:04.066Z,3.60
2019-05-25T12:51:30.713Z,2.93
2019-05-25T12:53:57.437Z,2.90
2019-05-25T12:56:23.821Z,3.67
2019-05-25T12:58:50.387Z,3.63
2019-05-25T13:01:17.253Z,3.33
2019-05-25T13:03:43.812Z,3.17
2019-05-25T13:06:10.197Z,3.47
2019-05-25T13:08:36.550Z,2.80
2019-05-25T13:11:03.520Z,2.50
2019-05-25T13:13:30.072Z,3.07
2019-05-25T13:15:56.448Z,3.60
2019-05-25T13:18:22.840Z,3.60
2019-05-25T13:20:49.093Z,3.20
2019-05-25T13:23:15.377Z,3.10
2019-05-25T13:25:42.115Z,2.97
2019-05-25T13:28:08.631Z,2.27
2019-05-25T13:30:35.071Z,2.40
2019-05-25T13:33:01.817Z,2.97
2019-05-25T13:35:28.168Z,3.00
2019-05-25T13:37:54.813Z,3.07
2019-05-25T13:40:21.147Z,3.10
2019-05-25T13:42:47.426Z,2.50
2019-05-25T13:45:14.458Z,3.00
2019-05-25T13:47:40.932Z,3.20
2019-05-25T13:50:08.296Z,2.97
2019-05-25T13:52:35.958Z,3.33
2019-05-25T13:55:03.608Z,3.27
2019-05-25T13:57:29.974Z,3.30
2019-05-25T13:59:56.478Z,3.03
2019-05-25T14:02:22.747Z,3.07
2019-05-25T14:04:49.088Z,2.43
2019-05-25T14:07:15.732Z,2.50
2019-05-25T14:09:42.092Z,2.30
2019-05-25T14:12:08.709Z,2.17
2019-05-25T14:14:34.968Z,1.90
2019-05-25T14:17:01.353Z,1.90
2019-05-25T14:19:27.687Z,2.00
2019-05-25T14:21:54.099Z,1.80
2019-05-25T14:24:20.741Z,1.70
2019-05-25T14:26:47.080Z,1.93
2019-05-25T14:29:13.328Z,2.00
2019-05-25T14:31:45.447Z,1.77
2019-05-25T14:34:08.047Z,1.60
2019-05-25T14:36:34.389Z,1.73
2019-05-25T14:39:00.682Z,1.67
2019-05-25T14:41:27.280Z,1.47
2019-05-25T14:43:53.544Z,2.10
2019-05-25T14:46:28.014Z,2.30
2019-05-25T14:48:48.372Z,2.00
2019-05-25T14:51:14.983Z,2.03
2019-05-25T14:53:41.653Z,1.80
2019-05-25T14:56:08.378Z,2.37
2019-05-25T14:58:34.764Z,2.50
2019-05-25T15:01:01.486Z,2.90
2019-05-25T15:03:27.853Z,2.47
2019-05-25T15:05:54.203Z,2.87
2019-05-25T15:08:20.766Z,2.53
2019-05-25T15:10:47.213Z,2.80
2019-05-25T15:13:13.587Z,2.50
2019-05-25T15:15:39.860Z,2.37
2019-05-25T15:18:06.215Z,2.50
2019-05-25T15:20:32.573Z,2.00
2019-05-25T15:22:58.963Z,2.00
2019-05-25T15:25:25.338Z,2.40
2019-05-25T15:27:51.719Z,2.17
2019-05-25T15:30:18.383Z,1.90
2019-05-25T15:32:45.203Z,1.90
2019-05-25T15:35:12.360Z,1.53
2019-05-25T15:37:38.624Z,3.10
2019-05-25T15:40:09.389Z,3.97
2019-05-25T15:42:35.761Z,3.87
2019-05-25T15:45:04.840Z,3.37
2019-05-25T15:47:31.100Z,3.50
2019-05-25T15:49:57.469Z,3.50
2019-05-25T15:52:23.822Z,3.20
2019-05-25T15:54:50.196Z,3.40
2019-05-25T15:57:16.495Z,3.00
2019-05-25T15:59:43.132Z,3.37
2019-05-25T16:02:09.379Z,3.60
2019-05-25T16:04:35.822Z,4.30
2019-05-25T16:07:02.585Z,3.87
2019-05-25T16:09:29.059Z,3.20
2019-05-25T16:11:55.562Z,2.87
2019-05-25T16:14:22.054Z,3.53
2019-05-25T16:16:48.618Z,3.57
2019-05-25T16:19:14.980Z,2.60
2019-05-25T16:21:41.580Z,3.47
2019-05-25T16:24:08.320Z,3.27
2019-05-25T16:26:45.686Z,3.27
2019-05-25T16:29:03.013Z,3.90
2019-05-25T16:31:29.389Z,3.10
2019-05-25T16:33:55.866Z,3.60
2019-05-25T16:36:22.413Z,4.20
2019-05-25T16:38:48.769Z,3.80
2019-05-25T16:41:15.504Z,4.27
2019-05-25T16:43:41.967Z,3.87
2019-05-25T16:46:08.333Z,4.00
2019-05-25T16:48:34.707Z,3.70
2019-05-25T16:51:01.061Z,3.70
2019-05-25T16:53:27.444Z,3.83
2019-05-25T16:55:54.906Z,3.23
2019-05-25T16:58:21.592Z,3.83
2019-05-25T17:00:48.277Z,4.20
2019-05-25T17:03:27.589Z,4.10
2019-05-25T17:05:44.072Z,3.90
2019-05-25T17:08:10.808Z,3.80
2019-05-25T17:10:37.415Z,3.20
2019-05-25T17:13:03.689Z,4.03
2019-05-25T17:15:31.339Z,3.70
2019-05-25T17:17:57.587Z,3.50
2019-05-25T17:20:24.284Z,3.37
2019-05-25T17:22:50.571Z,3.60
2019-05-25T17:25:17.141Z,6.13
2019-05-25T17:27:43.489Z,6.67
2019-05-25T17:30:11.457Z,8.73
2019-05-25T17:32:37.858Z,8.73
2019-05-25T17:35:04.605Z,7.43
2019-05-25T17:37:30.939Z,4.77
2019-05-25T17:39:57.235Z,4.57
2019-05-25T17:42:23.553Z,3.50
2019-05-25T17:44:49.901Z,4.10
2019-05-25T17:47:16.169Z,3.50
2019-05-25T17:49:42.509Z,3.50
2019-05-25T17:52:09.068Z,3.53
2019-05-25T17:54:35.414Z,3.50
2019-05-25T17:57:02.975Z,4.70
2019-05-25T17:59:29.445Z,3.73
2019-05-25T18:01:56.085Z,4.50
2019-05-25T18:04:22.605Z,4.10
2019-05-25T18:06:49.056Z,4.60
2019-05-25T18:09:15.703Z,4.07
2019-05-25T18:11:42.306Z,3.60
2019-05-25T18:14:08.682Z,4.37
2019-05-25T18:16:34.989Z,4.10
2019-05-25T18:19:01.367Z,3.90
2019-05-25T18:21:28.724Z,3.60
2019-05-25T18:23:55.088Z,3.97
2019-05-25T18:26:21.705Z,3.27
2019-05-25T18:28:48.071Z,3.67
2019-05-25T18:31:14.428Z,3.73
2019-05-25T18:33:40.731Z,3.40
2019-05-25T18:36:08.396Z,3.80
2019-05-25T18:38:34.999Z,3.30
2019-05-25T18:41:01.402Z,3.23
2019-05-25T18:43:28.013Z,3.43
2019-05-25T18:45:55.656Z,3.50
2019-05-25T18:48:23.040Z,3.17
2019-05-25T18:50:49.400Z,2.90
2019-05-25T18:53:15.646Z,2.80
2019-05-25T18:55:42.179Z,2.77
2019-05-25T18:58:08.508Z,3.87
2019-05-25T19:00:34.880Z,3.93
2019-05-25T19:03:01.239Z,4.13
2019-05-25T19:05:27.925Z,3.53
2019-05-25T19:07:54.607Z,3.80
2019-05-25T19:10:21.460Z,3.73
2019-05-25T19:12:47.724Z,3.30
2019-05-25T19:15:14.892Z,3.03
2019-05-25T19:17:42.670Z,3.93
2019-05-25T19:20:11.788Z,3.70
2019-05-25T19:22:38.411Z,3.40
2019-05-25T19:25:09.823Z,4.10
2019-05-25T19:27:36.193Z,4.17
2019-05-25T19:30:08.230Z,3.30
2019-05-25T19:32:34.696Z,3.50
2019-05-25T19:35:01.090Z,3.77
2019-05-25T19:37:27.443Z,3.60
2019-05-25T19:39:53.863Z,4.07
2019-05-25T19:42:20.820Z,3.30
2019-05-25T19:44:47.616Z,3.97
2019-05-25T19:47:14.793Z,4.37
2019-05-25T19:49:43.253Z,4.13
2019-05-25T19:52:09.991Z,4.17
2019-05-25T19:54:36.365Z,5.00
2019-05-25T19:57:03.088Z,4.87
2019-05-25T19:59:29.532Z,5.67
2019-05-25T20:01:56.017Z,4.53
2019-05-25T20:04:22.376Z,5.70
2019-05-25T20:06:51.792Z,4.33
2019-05-25T20:09:18.421Z,4.20
2019-05-25T20:11:45.107Z,3.30
2019-05-25T20:14:11.352Z,3.07
2019-05-25T20:16:37.760Z,3.20
2019-05-25T20:19:05.170Z,2.93
2019-05-25T20:21:31.902Z,3.00
2019-05-25T20:23:58.280Z,5.63
2019-05-25T20:26:24.621Z,5.63
2019-05-25T20:28:51.065Z,5.57
2019-05-25T20:31:17.724Z,5.47
2019-05-25T20:33:44.463Z,4.53
2019-05-25T20:36:10.936Z,4.73
2019-05-25T20:38:37.318Z,5.07
2019-05-25T20:41:03.677Z,5.87
2019-05-25T20:43:30.241Z,6.20
2019-05-25T20:45:56.615Z,6.50
2019-05-25T20:48:22.971Z,5.53
2019-05-25T20:50:49.243Z,5.77
2019-05-25T20:53:15.935Z,6.70
2019-05-25T20:55:42.719Z,5.60
2019-05-25T20:58:08.960Z,6.17
2019-05-25T21:00:35.236Z,6.97
2019-05-25T21:03:06.462Z,7.60
2019-05-25T21:05:48.473Z,7.77
2019-05-25T21:08:00.178Z,7.80
2019-05-25T21:10:26.851Z,6.13
2019-05-25T21:12:53.109Z,6.80
2019-05-25T21:15:19.744Z,6.90
2019-05-25T21:17:46.392Z,8.90
2019-05-25T21:20:13.717Z,8.50
2019-05-25T21:22:40.209Z,8.50
2019-05-25T21:25:06.816Z,8.50
2019-05-25T21:27:33.478Z,10.47
2019-05-25T21:29:59.928Z,10.00
2019-05-25T21:32:26.572Z,11.00
2019-05-25T21:34:53.036Z,8.80
2019-05-25T21:37:19.402Z,9.47
2019-05-25T21:39:46.728Z,9.33
2019-05-25T21:42:13.363Z,10.00
2019-05-25T21:44:39.734Z,9.57
2019-05-25T21:47:06.151Z,9.63
2019-05-25T21:49:33.263Z,10.17
2019-05-25T21:51:59.634Z,8.83
2019-05-25T21:54:25.967Z,11.33
2019-05-25T21:56:52.665Z,12.00
2019-05-25T21:59:19.114Z,13.33
2019-05-25T22:01:45.708Z,12.27
2019-05-25T22:04:12.025Z,13.67
2019-05-25T22:06:38.342Z,12.50
2019-05-25T22:09:06.148Z,13.97
2019-05-25T22:11:32.700Z,10.77
2019-05-25T22:13:58.941Z,12.17
2019-05-25T22:16:25.326Z,11.37
2019-05-25T22:18:52.268Z,14.23
2019-05-25T22:21:18.924Z,14.50
2019-05-25T22:23:45.285Z,14.23
2019-05-25T22:26:11.774Z,14.47
2019-05-25T22:28:44.667Z,15.40
2019-05-25T22:31:07.303Z,17.20
2019-05-25T22:33:33.887Z,16.53
2019-05-25T22:36:00.244Z,18.03
2019-05-25T22:38:26.709Z,15.90
2019-05-25T22:40:53.047Z,14.23
2019-05-25T22:43:19.335Z,19.37
2019-05-25T22:45:45.947Z,18.37
2019-05-25T22:48:12.209Z,14.83
2019-05-25T22:50:38.536Z,15.20
2019-05-25T22:53:04.939Z,14.30
2019-05-25T22:55:31.275Z,14.03
2019-05-25T22:57:57.656Z,13.47
2019-05-25T23:00:24.001Z,14.90
2019-05-25T23:02:50.366Z,13.33
2019-05-25T23:05:17.014Z,13.10
2019-05-25T23:07:43.683Z,14.40
2019-05-25T23:10:10.576Z,13.33
2019-05-25T23:12:36.950Z,14.43
2019-05-25T23:15:07.157Z,13.50
2019-05-25T23:17:33.546Z,14.37
2019-05-25T23:19:59.998Z,14.60
2019-05-25T23:22:26.411Z,14.10
2019-05-25T23:24:52.648Z,13.77
2019-05-25T23:27:19.022Z,14.17
2019-05-25T23:29:45.465Z,16.13
2019-05-25T23:32:11.946Z,15.63
2019-05-25T23:34:38.493Z,16.40
2019-05-25T23:37:14.854Z,13.00
2019-05-25T23:39:34.203Z,13.63
2019-05-25T23:42:00.480Z,15.77
2019-05-25T23:44:26.834Z,13.60
2019-05-25T23:46:53.367Z,14.87
2019-05-25T23:49:19.895Z,12.90
2019-05-25T23:51:46.259Z,13.97
2019-05-25T23:54:12.551Z,16.07
2019-05-25T23:56:39.112Z,14.07
2019-05-25T23:59:05.476Z,15.43
